Shoei Maru No.8 — JL5999 — position and weather

sailwx.info

Track history (hours):
 
Tides and Currents Weather Stations Pressure Air Temp Water Temp Dewpoint Dewpoint Depression Visibility Wind Speed Wind Dir Waves Ship Positions

Shoei Maru No.8

Last reported at 2018-Jun-03 11:45 UTC. Time now 2018-Jun-24 22:32 UTC.
Position N 33°56' E 134°56'.
Warning: this ship's position is 21 days out of date.

Length 62 m.

Type: Tanker. MMSI: 431500089.

Date/timePositionNaut miles runAvg speedWind from/ knotsBaromVisibWave heightAir tempDewpointWater temp
2018-Jun-03 11:45N 33°56' E 134°56'24610.2
2018-Jun-02 11:46N 35°07' E 139°42'311.3
2018-Jun-02 11:29N 35°10' E 139°44'611.2
2018-Jun-02 10:57N 35°16' E 139°46'511.0
2018-Jun-02 10:28N 35°20' E 139°43'5 0.4
2018-Jun-01 23:32N 35°24' E 139°46'111.7
2018-Jun-01 23:27N 35°23' E 139°45'510.7
2018-Jun-01 23:01N 35°18' E 139°44'610.8
2018-Jun-01 22:29N 35°13' E 139°47'611.6
2018-Jun-01 22:00N 35°07' E 139°46'611.4
2018-Jun-01 21:29N 35°01' E 139°44'  
Track history (hours):
 
Tides and Currents Weather Stations Pressure Air Temp Water Temp Dewpoint Dewpoint Depression Visibility Wind Speed Wind Dir Waves Ship Positions

Shoei Maru No.8

Last reported at 2018-Jun-03 11:45 UTC. Time now 2018-Jun-24 22:32 UTC.
Position N 33°56' E 134°56'.
Warning: this ship's position is 21 days out of date.

Length 62 m.

Type: Tanker. MMSI: 431500089.

Date/timePositionNaut miles runAvg speedWind from/ knotsBaromVisibWave heightAir tempDewpointWater temp
2018-Jun-03 11:45N 33°56' E 134°56'24610.2
2018-Jun-02 11:46N 35°07' E 139°42'311.3
2018-Jun-02 11:29N 35°10' E 139°44'611.2
2018-Jun-02 10:57N 35°16' E 139°46'511.0
2018-Jun-02 10:28N 35°20' E 139°43'5 0.4
2018-Jun-01 23:32N 35°24' E 139°46'111.7
2018-Jun-01 23:27N 35°23' E 139°45'510.7
2018-Jun-01 23:01N 35°18' E 139°44'610.8
2018-Jun-01 22:29N 35°13' E 139°47'611.6
2018-Jun-01 22:00N 35°07' E 139°46'611.4
2018-Jun-01 21:29N 35°01' E 139°44'  

Dump ship's entire track history